sensor_id;sensor_type;location;lat;lon;timestamp;P1;durP1;ratioP1;P2;durP2;ratioP2
2055;SDS011;1033;52.560;13.374;2023-03-01T00:00:07;54.83;;;29.33;;
2055;SDS011;1033;52.560;13.374;2023-03-01T00:02:45;47.53;;;27.10;;
2055;SDS011;1033;52.560;13.374;2023-03-01T00:05:18;46.40;;;26.58;;
2055;SDS011;1033;52.560;13.374;2023-03-01T00:08:02;49.35;;;29.05;;
2055;SDS011;1033;52.560;13.374;2023-03-01T00:13:32;40.92;;;25.63;;
2055;SDS011;1033;52.560;13.374;2023-03-01T00:16:12;39.92;;;24.67;;
2055;SDS011;1033;52.560;13.374;2023-03-01T00:18:48;37.35;;;23.67;;
2055;SDS011;1033;52.560;13.374;2023-03-01T00:21:26;32.88;;;21.20;;
2055;SDS011;1033;52.560;13.374;2023-03-01T00:24:05;41.50;;;25.35;;
2055;SDS011;1033;52.560;13.374;2023-03-01T00:26:37;31.75;;;19.75;;
2055;SDS011;1033;52.560;13.374;2023-03-01T00:29:10;39.50;;;24.13;;
2055;SDS011;1033;52.560;13.374;2023-03-01T00:31:47;31.80;;;23.55;;
2055;SDS011;1033;52.560;13.374;2023-03-01T00:34:22;41.97;;;24.27;;
2055;SDS011;1033;52.560;13.374;2023-03-01T00:37:08;40.90;;;25.38;;
2055;SDS011;1033;52.560;13.374;2023-03-01T00:39:48;32.08;;;21.90;;
2055;SDS011;1033;52.560;13.374;2023-03-01T00:42:29;40.88;;;23.60;;
2055;SDS011;1033;52.560;13.374;2023-03-01T00:48:45;31.55;;;18.85;;
2055;SDS011;1033;52.560;13.374;2023-03-01T00:51:21;37.08;;;21.42;;
2055;SDS011;1033;52.560;13.374;2023-03-01T00:53:57;29.95;;;20.02;;
2055;SDS011;1033;52.560;13.374;2023-03-01T00:56:38;33.95;;;21.70;;
2055;SDS011;1033;52.560;13.374;2023-03-01T00:59:12;36.72;;;22.08;;
2055;SDS011;1033;52.560;13.374;2023-03-01T01:01:43;32.97;;;22.33;;
2055;SDS011;1033;52.560;13.374;2023-03-01T01:04:19;39.45;;;23.80;;
2055;SDS011;1033;52.560;13.374;2023-03-01T01:06:56;35.28;;;23.45;;
2055;SDS011;1033;52.560;13.374;2023-03-01T01:09:30;33.15;;;19.10;;
2055;SDS011;1033;52.560;13.374;2023-03-01T01:14:50;37.13;;;24.15;;
2055;SDS011;1033;52.560;13.374;2023-03-01T01:17:24;36.35;;;22.60;;
2055;SDS011;1033;52.560;13.374;2023-03-01T01:19:55;33.35;;;25.38;;
2055;SDS011;1033;52.560;13.374;2023-03-01T01:22:33;48.35;;;26.85;;
2055;SDS011;1033;52.560;13.374;2023-03-01T01:25:12;37.47;;;24.00;;
2055;SDS011;1033;52.560;13.374;2023-03-01T01:27:43;36.50;;;23.33;;
2055;SDS011;1033;52.560;13.374;2023-03-01T01:30:16;43.05;;;25.08;;
2055;SDS011;1033;52.560;13.374;2023-03-01T01:32:51;37.80;;;22.33;;
2055;SDS011;1033;52.560;13.374;2023-03-01T01:35:24;32.80;;;22.23;;
2055;SDS011;1033;52.560;13.374;2023-03-01T01:38:01;31.73;;;20.73;;
2055;SDS011;1033;52.560;13.374;2023-03-01T01:40:42;30.65;;;20.45;;
2055;SDS011;1033;52.560;13.374;2023-03-01T01:43:18;37.60;;;19.75;;
2055;SDS011;1033;52.560;13.374;2023-03-01T01:46:04;23.52;;;17.50;;
2055;SDS011;1033;52.560;13.374;2023-03-01T01:48:52;34.55;;;16.85;;
2055;SDS011;1033;52.560;13.374;2023-03-01T01:51:32;30.77;;;18.65;;
2055;SDS011;1033;52.560;13.374;2023-03-01T01:54:27;24.75;;;16.35;;
2055;SDS011;1033;52.560;13.374;2023-03-01T01:57:02;18.73;;;14.35;;
2055;SDS011;1033;52.560;13.374;2023-03-01T01:59:38;28.58;;;16.35;;
2055;SDS011;1033;52.560;13.374;2023-03-01T02:02:14;23.75;;;14.40;;
2055;SDS011;1033;52.560;13.374;2023-03-01T02:04:58;17.38;;;13.57;;
2055;SDS011;1033;52.560;13.374;2023-03-01T02:07:38;20.05;;;11.77;;
2055;SDS011;1033;52.560;13.374;2023-03-01T02:10:17;16.25;;;11.82;;
2055;SDS011;1033;52.560;13.374;2023-03-01T02:12:50;15.68;;;10.18;;
2055;SDS011;1033;52.560;13.374;2023-03-01T02:15:26;15.32;;;11.00;;
2055;SDS011;1033;52.560;13.374;2023-03-01T02:18:05;18.55;;;10.43;;
2055;SDS011;1033;52.560;13.374;2023-03-01T02:20:50;11.82;;;9.73;;
2055;SDS011;1033;52.560;13.374;2023-03-01T02:24:02;15.18;;;10.57;;
2055;SDS011;1033;52.560;13.374;2023-03-01T02:26:51;13.82;;;10.02;;
2055;SDS011;1033;52.560;13.374;2023-03-01T02:29:30;20.00;;;10.88;;
2055;SDS011;1033;52.560;13.374;2023-03-01T02:32:06;17.70;;;10.95;;
2055;SDS011;1033;52.560;13.374;2023-03-01T02:34:42;20.27;;;12.77;;
2055;SDS011;1033;52.560;13.374;2023-03-01T02:37:19;20.60;;;10.43;;
2055;SDS011;1033;52.560;13.374;2023-03-01T02:39:56;18.55;;;12.05;;
2055;SDS011;1033;52.560;13.374;2023-03-01T02:42:40;16.00;;;10.43;;
2055;SDS011;1033;52.560;13.374;2023-03-01T02:45:25;23.23;;;13.13;;
2055;SDS011;1033;52.560;13.374;2023-03-01T02:48:04;21.48;;;11.93;;
2055;SDS011;1033;52.560;13.374;2023-03-01T02:50:45;23.02;;;14.05;;
2055;SDS011;1033;52.560;13.374;2023-03-01T02:53:32;23.73;;;12.40;;
2055;SDS011;1033;52.560;13.374;2023-03-01T02:56:17;18.42;;;11.15;;
2055;SDS011;1033;52.560;13.374;2023-03-01T02:58:51;16.80;;;11.63;;
2055;SDS011;1033;52.560;13.374;2023-03-01T03:01:32;20.48;;;12.45;;
2055;SDS011;1033;52.560;13.374;2023-03-01T03:04:13;19.63;;;13.45;;
2055;SDS011;1033;52.560;13.374;2023-03-01T03:06:50;19.17;;;11.35;;
2055;SDS011;1033;52.560;13.374;2023-03-01T03:09:25;17.80;;;11.23;;
2055;SDS011;1033;52.560;13.374;2023-03-01T03:12:03;22.55;;;13.18;;
2055;SDS011;1033;52.560;13.374;2023-03-01T03:14:49;19.13;;;13.07;;
2055;SDS011;1033;52.560;13.374;2023-03-01T03:17:24;20.75;;;14.68;;
2055;SDS011;1033;52.560;13.374;2023-03-01T03:20:06;20.23;;;14.18;;
2055;SDS011;1033;52.560;13.374;2023-03-01T03:22:40;20.63;;;14.13;;
2055;SDS011;1033;52.560;13.374;2023-03-01T03:25:14;21.10;;;13.63;;
2055;SDS011;1033;52.560;13.374;2023-03-01T03:27:50;15.95;;;11.32;;
2055;SDS011;1033;52.560;13.374;2023-03-01T03:30:27;21.67;;;13.77;;
2055;SDS011;1033;52.560;13.374;2023-03-01T03:33:05;17.63;;;13.85;;
2055;SDS011;1033;52.560;13.374;2023-03-01T03:35:40;21.90;;;13.82;;
2055;SDS011;1033;52.560;13.374;2023-03-01T03:38:15;22.23;;;12.15;;
2055;SDS011;1033;52.560;13.374;2023-03-01T03:40:52;19.77;;;14.00;;
2055;SDS011;1033;52.560;13.374;2023-03-01T03:43:33;16.25;;;12.95;;
2055;SDS011;1033;52.560;13.374;2023-03-01T03:46:10;18.50;;;14.57;;
2055;SDS011;1033;52.560;13.374;2023-03-01T03:48:47;21.23;;;13.25;;
2055;SDS011;1033;52.560;13.374;2023-03-01T03:51:19;20.80;;;15.02;;
2055;SDS011;1033;52.560;13.374;2023-03-01T03:53:54;20.42;;;12.90;;
2055;SDS011;1033;52.560;13.374;2023-03-01T03:56:32;27.80;;;14.18;;
2055;SDS011;1033;52.560;13.374;2023-03-01T03:59:18;25.23;;;15.45;;
2055;SDS011;1033;52.560;13.374;2023-03-01T04:01:51;20.58;;;15.15;;
2055;SDS011;1033;52.560;13.374;2023-03-01T04:04:29;23.85;;;15.25;;
2055;SDS011;1033;52.560;13.374;2023-03-01T04:07:16;25.23;;;14.45;;
2055;SDS011;1033;52.560;13.374;2023-03-01T04:09:49;18.48;;;14.07;;
2055;SDS011;1033;52.560;13.374;2023-03-01T04:12:23;19.90;;;14.38;;
2055;SDS011;1033;52.560;13.374;2023-03-01T04:14:55;30.00;;;16.17;;
2055;SDS011;1033;52.560;13.374;2023-03-01T04:17:27;23.23;;;15.27;;
2055;SDS011;1033;52.560;13.374;2023-03-01T04:20:10;38.55;;;20.13;;
2055;SDS011;1033;52.560;13.374;2023-03-01T04:22:53;25.13;;;14.65;;
2055;SDS011;1033;52.560;13.374;2023-03-01T04:25:39;28.75;;;14.55;;
2055;SDS011;1033;52.560;13.374;2023-03-01T04:28:18;29.77;;;16.90;;
2055;SDS011;1033;52.560;13.374;2023-03-01T04:30:52;27.05;;;17.45;;
2055;SDS011;1033;52.560;13.374;2023-03-01T04:33:41;22.35;;;14.85;;
2055;SDS011;1033;52.560;13.374;2023-03-01T04:36:27;20.33;;;15.23;;
2055;SDS011;1033;52.560;13.374;2023-03-01T04:39:13;21.92;;;14.50;;
2055;SDS011;1033;52.560;13.374;2023-03-01T04:41:46;25.17;;;17.10;;
2055;SDS011;1033;52.560;13.374;2023-03-01T04:44:24;28.20;;;16.23;;
2055;SDS011;1033;52.560;13.374;2023-03-01T04:47:08;25.83;;;17.45;;
2055;SDS011;1033;52.560;13.374;2023-03-01T04:49:49;19.08;;;13.13;;
2055;SDS011;1033;52.560;13.374;2023-03-01T04:52:38;16.95;;;13.18;;
2055;SDS011;1033;52.560;13.374;2023-03-01T04:55:15;26.70;;;15.77;;
2055;SDS011;1033;52.560;13.374;2023-03-01T04:57:51;21.65;;;15.23;;
2055;SDS011;1033;52.560;13.374;2023-03-01T05:00:25;28.73;;;17.58;;
2055;SDS011;1033;52.560;13.374;2023-03-01T05:03:04;24.58;;;15.15;;
2055;SDS011;1033;52.560;13.374;2023-03-01T05:05:46;21.67;;;15.82;;
2055;SDS011;1033;52.560;13.374;2023-03-01T05:08:25;20.08;;;13.27;;
2055;SDS011;1033;52.560;13.374;2023-03-01T05:11:03;16.40;;;11.98;;
2055;SDS011;1033;52.560;13.374;2023-03-01T05:13:43;18.83;;;12.25;;
2055;SDS011;1033;52.560;13.374;2023-03-01T05:16:23;24.50;;;13.18;;
2055;SDS011;1033;52.560;13.374;2023-03-01T05:18:56;22.75;;;13.35;;
2055;SDS011;1033;52.560;13.374;2023-03-01T05:21:34;23.05;;;14.45;;
2055;SDS011;1033;52.560;13.374;2023-03-01T05:24:33;19.65;;;13.00;;
2055;SDS011;1033;52.560;13.374;2023-03-01T05:27:07;19.67;;;13.70;;
2055;SDS011;1033;52.560;13.374;2023-03-01T05:29:49;22.35;;;13.88;;
2055;SDS011;1033;52.560;13.374;2023-03-01T05:32:20;17.65;;;12.00;;
2055;SDS011;1033;52.560;13.374;2023-03-01T05:34:55;24.63;;;14.25;;
2055;SDS011;1033;52.560;13.374;2023-03-01T05:37:28;22.15;;;13.93;;
2055;SDS011;1033;52.560;13.374;2023-03-01T05:40:14;16.38;;;12.02;;
2055;SDS011;1033;52.560;13.374;2023-03-01T05:42:52;23.17;;;13.95;;
2055;SDS011;1033;52.560;13.374;2023-03-01T05:45:26;16.70;;;12.43;;
2055;SDS011;1033;52.560;13.374;2023-03-01T05:48:00;23.65;;;15.40;;
2055;SDS011;1033;52.560;13.374;2023-03-01T05:50:39;23.15;;;14.00;;
2055;SDS011;1033;52.560;13.374;2023-03-01T05:53:16;22.88;;;12.57;;
2055;SDS011;1033;52.560;13.374;2023-03-01T05:55:53;20.17;;;13.02;;
2055;SDS011;1033;52.560;13.374;2023-03-01T05:58:29;18.20;;;10.52;;
2055;SDS011;1033;52.560;13.374;2023-03-01T06:01:02;25.98;;;15.30;;
2055;SDS011;1033;52.560;13.374;2023-03-01T06:03:34;22.85;;;14.05;;
2055;SDS011;1033;52.560;13.374;2023-03-01T06:06:08;22.70;;;13.73;;
2055;SDS011;1033;52.560;13.374;2023-03-01T06:08:41;19.30;;;12.77;;
2055;SDS011;1033;52.560;13.374;2023-03-01T06:11:18;19.48;;;13.20;;
2055;SDS011;1033;52.560;13.374;2023-03-01T06:13:54;21.38;;;12.98;;
2055;SDS011;1033;52.560;13.374;2023-03-01T06:16:27;26.60;;;16.15;;
2055;SDS011;1033;52.560;13.374;2023-03-01T06:19:02;23.48;;;16.35;;
2055;SDS011;1033;52.560;13.374;2023-03-01T06:21:37;19.30;;;14.07;;
2055;SDS011;1033;52.560;13.374;2023-03-01T06:24:13;18.98;;;12.85;;
2055;SDS011;1033;52.560;13.374;2023-03-01T06:26:52;23.90;;;15.20;;
2055;SDS011;1033;52.560;13.374;2023-03-01T06:29:26;19.65;;;13.48;;
2055;SDS011;1033;52.560;13.374;2023-03-01T06:32:10;18.42;;;12.75;;
2055;SDS011;1033;52.560;13.374;2023-03-01T06:34:49;21.95;;;16.38;;
2055;SDS011;1033;52.560;13.374;2023-03-01T06:37:41;30.80;;;17.42;;
2055;SDS011;1033;52.560;13.374;2023-03-01T06:40:16;22.77;;;14.68;;
2055;SDS011;1033;52.560;13.374;2023-03-01T06:42:52;20.67;;;14.07;;
2055;SDS011;1033;52.560;13.374;2023-03-01T06:45:27;21.63;;;14.60;;
2055;SDS011;1033;52.560;13.374;2023-03-01T06:48:02;26.05;;;17.20;;
2055;SDS011;1033;52.560;13.374;2023-03-01T06:50:40;27.30;;;16.70;;
2055;SDS011;1033;52.560;13.374;2023-03-01T06:56:40;18.88;;;15.75;;
2055;SDS011;1033;52.560;13.374;2023-03-01T06:59:28;27.85;;;14.52;;
2055;SDS011;1033;52.560;13.374;2023-03-01T07:02:04;22.77;;;15.85;;
2055;SDS011;1033;52.560;13.374;2023-03-01T07:04:42;18.83;;;15.48;;
2055;SDS011;1033;52.560;13.374;2023-03-01T07:07:18;22.58;;;15.63;;
2055;SDS011;1033;52.560;13.374;2023-03-01T07:09:52;29.75;;;17.05;;
2055;SDS011;1033;52.560;13.374;2023-03-01T07:12:29;28.02;;;17.83;;
2055;SDS011;1033;52.560;13.374;2023-03-01T07:15:07;28.75;;;20.60;;
2055;SDS011;1033;52.560;13.374;2023-03-01T07:17:42;24.88;;;18.63;;
2055;SDS011;1033;52.560;13.374;2023-03-01T07:20:19;27.90;;;18.95;;
2055;SDS011;1033;52.560;13.374;2023-03-01T07:22:59;33.03;;;18.83;;
2055;SDS011;1033;52.560;13.374;2023-03-01T07:25:29;33.55;;;19.92;;
2055;SDS011;1033;52.560;13.374;2023-03-01T07:28:02;32.63;;;19.45;;
2055;SDS011;1033;52.560;13.374;2023-03-01T07:30:37;29.38;;;18.38;;
2055;SDS011;1033;52.560;13.374;2023-03-01T07:33:11;25.08;;;17.35;;
2055;SDS011;1033;52.560;13.374;2023-03-01T07:35:44;24.65;;;18.55;;
2055;SDS011;1033;52.560;13.374;2023-03-01T07:38:18;36.45;;;19.33;;
2055;SDS011;1033;52.560;13.374;2023-03-01T07:40:51;23.42;;;17.80;;
2055;SDS011;1033;52.560;13.374;2023-03-01T07:43:24;26.67;;;16.15;;
2055;SDS011;1033;52.560;13.374;2023-03-01T07:46:00;25.90;;;16.40;;
2055;SDS011;1033;52.560;13.374;2023-03-01T07:48:35;24.98;;;15.60;;
2055;SDS011;1033;52.560;13.374;2023-03-01T07:51:10;24.40;;;15.93;;
2055;SDS011;1033;52.560;13.374;2023-03-01T07:53:42;46.83;;;32.20;;
2055;SDS011;1033;52.560;13.374;2023-03-01T07:56:18;21.70;;;15.95;;
2055;SDS011;1033;52.560;13.374;2023-03-01T07:58:52;39.03;;;34.40;;
2055;SDS011;1033;52.560;13.374;2023-03-01T08:01:26;25.65;;;22.52;;
2055;SDS011;1033;52.560;13.374;2023-03-01T08:03:59;23.73;;;17.48;;
2055;SDS011;1033;52.560;13.374;2023-03-01T08:06:35;25.10;;;15.60;;
2055;SDS011;1033;52.560;13.374;2023-03-01T08:09:09;22.10;;;15.30;;
2055;SDS011;1033;52.560;13.374;2023-03-01T08:11:42;19.05;;;12.88;;
2055;SDS011;1033;52.560;13.374;2023-03-01T08:14:14;18.65;;;13.18;;
2055;SDS011;1033;52.560;13.374;2023-03-01T08:16:51;15.77;;;13.35;;
2055;SDS011;1033;52.560;13.374;2023-03-01T08:19:22;16.33;;;11.18;;
2055;SDS011;1033;52.560;13.374;2023-03-01T08:21:59;14.00;;;11.20;;
2055;SDS011;1033;52.560;13.374;2023-03-01T08:24:32;17.42;;;10.02;;
2055;SDS011;1033;52.560;13.374;2023-03-01T08:27:10;19.58;;;9.80;;
2055;SDS011;1033;52.560;13.374;2023-03-01T08:29:54;12.45;;;7.80;;
2055;SDS011;1033;52.560;13.374;2023-03-01T08:32:29;12.10;;;9.10;;
2055;SDS011;1033;52.560;13.374;2023-03-01T08:35:04;18.30;;;9.45;;
2055;SDS011;1033;52.560;13.374;2023-03-01T08:37:36;13.27;;;10.65;;
2055;SDS011;1033;52.560;13.374;2023-03-01T08:40:10;12.90;;;9.27;;
2055;SDS011;1033;52.560;13.374;2023-03-01T08:42:47;13.10;;;8.50;;
2055;SDS011;1033;52.560;13.374;2023-03-01T08:45:22;14.82;;;10.07;;
2055;SDS011;1033;52.560;13.374;2023-03-01T08:47:54;12.50;;;9.35;;
2055;SDS011;1033;52.560;13.374;2023-03-01T08:50:29;12.45;;;9.68;;
2055;SDS011;1033;52.560;13.374;2023-03-01T08:53:11;16.23;;;10.23;;
2055;SDS011;1033;52.560;13.374;2023-03-01T08:55:46;16.52;;;10.55;;
2055;SDS011;1033;52.560;13.374;2023-03-01T08:58:18;15.90;;;9.98;;
2055;SDS011;1033;52.560;13.374;2023-03-01T09:00:49;17.08;;;10.77;;
2055;SDS011;1033;52.560;13.374;2023-03-01T09:03:26;20.90;;;10.13;;
2055;SDS011;1033;52.560;13.374;2023-03-01T09:05:59;13.27;;;9.80;;
2055;SDS011;1033;52.560;13.374;2023-03-01T09:08:35;18.02;;;11.38;;
2055;SDS011;1033;52.560;13.374;2023-03-01T09:11:09;10.80;;;9.43;;
2055;SDS011;1033;52.560;13.374;2023-03-01T09:13:43;11.88;;;9.35;;
2055;SDS011;1033;52.560;13.374;2023-03-01T09:16:17;11.35;;;7.95;;
2055;SDS011;1033;52.560;13.374;2023-03-01T09:18:51;12.05;;;8.95;;
2055;SDS011;1033;52.560;13.374;2023-03-01T09:21:23;14.27;;;8.45;;
2055;SDS011;1033;52.560;13.374;2023-03-01T09:24:06;12.50;;;9.98;;
2055;SDS011;1033;52.560;13.374;2023-03-01T09:26:42;14.82;;;8.35;;
2055;SDS011;1033;52.560;13.374;2023-03-01T09:29:17;13.13;;;9.75;;
2055;SDS011;1033;52.560;13.374;2023-03-01T09:31:48;11.00;;;8.68;;
2055;SDS011;1033;52.560;13.374;2023-03-01T09:34:26;9.55;;;7.30;;
2055;SDS011;1033;52.560;13.374;2023-03-01T09:36:58;8.57;;;5.93;;
2055;SDS011;1033;52.560;13.374;2023-03-01T09:39:30;9.80;;;7.35;;
2055;SDS011;1033;52.560;13.374;2023-03-01T09:42:03;6.82;;;5.00;;
2055;SDS011;1033;52.560;13.374;2023-03-01T09:44:35;13.05;;;6.63;;
2055;SDS011;1033;52.560;13.374;2023-03-01T09:47:17;10.25;;;5.30;;
2055;SDS011;1033;52.560;13.374;2023-03-01T09:49:57;9.35;;;5.30;;
2055;SDS011;1033;52.560;13.374;2023-03-01T09:52:34;5.53;;;4.25;;
2055;SDS011;1033;52.560;13.374;2023-03-01T09:55:13;8.73;;;4.60;;
2055;SDS011;1033;52.560;13.374;2023-03-01T09:57:47;9.65;;;6.18;;
2055;SDS011;1033;52.560;13.374;2023-03-01T10:00:29;16.95;;;5.78;;
2055;SDS011;1033;52.560;13.374;2023-03-01T10:03:13;5.25;;;3.85;;
2055;SDS011;1033;52.560;13.374;2023-03-01T10:05:59;6.20;;;4.22;;
2055;SDS011;1033;52.560;13.374;2023-03-01T10:09:02;57.58;;;28.95;;
2055;SDS011;1033;52.560;13.374;2023-03-01T10:11:52;19.33;;;11.95;;
2055;SDS011;1033;52.560;13.374;2023-03-01T10:14:47;8.25;;;4.15;;
2055;SDS011;1033;52.560;13.374;2023-03-01T10:17:34;5.22;;;3.72;;
2055;SDS011;1033;52.560;13.374;2023-03-01T10:20:18;12.80;;;9.10;;
2055;SDS011;1033;52.560;13.374;2023-03-01T10:23:10;5.55;;;3.72;;
2055;SDS011;1033;52.560;13.374;2023-03-01T10:26:04;3.90;;;3.35;;
2055;SDS011;1033;52.560;13.374;2023-03-01T10:29:14;6.07;;;3.60;;
2055;SDS011;1033;52.560;13.374;2023-03-01T10:32:00;9.38;;;3.92;;
2055;SDS011;1033;52.560;13.374;2023-03-01T10:34:42;5.53;;;3.95;;
2055;SDS011;1033;52.560;13.374;2023-03-01T10:37:36;4.03;;;3.30;;
2055;SDS011;1033;52.560;13.374;2023-03-01T10:43:49;7.53;;;4.97;;
2055;SDS011;1033;52.560;13.374;2023-03-01T10:46:26;5.78;;;4.00;;
2055;SDS011;1033;52.560;13.374;2023-03-01T10:51:57;3.47;;;2.92;;
2055;SDS011;1033;52.560;13.374;2023-03-01T10:54:53;4.45;;;3.00;;
2055;SDS011;1033;52.560;13.374;2023-03-01T10:57:37;13.18;;;5.75;;
2055;SDS011;1033;52.560;13.374;2023-03-01T11:00:19;5.15;;;3.17;;
2055;SDS011;1033;52.560;13.374;2023-03-01T11:03:09;7.68;;;6.95;;
2055;SDS011;1033;52.560;13.374;2023-03-01T11:05:52;7.07;;;2.70;;
2055;SDS011;1033;52.560;13.374;2023-03-01T11:08:35;4.47;;;3.05;;
2055;SDS011;1033;52.560;13.374;2023-03-01T11:11:21;7.72;;;6.00;;
2055;SDS011;1033;52.560;13.374;2023-03-01T11:14:12;3.60;;;2.95;;
2055;SDS011;1033;52.560;13.374;2023-03-01T11:17:00;3.70;;;2.88;;
2055;SDS011;1033;52.560;13.374;2023-03-01T11:19:33;5.18;;;4.18;;
2055;SDS011;1033;52.560;13.374;2023-03-01T11:22:11;3.08;;;2.60;;
2055;SDS011;1033;52.560;13.374;2023-03-01T11:24:49;5.55;;;2.65;;
2055;SDS011;1033;52.560;13.374;2023-03-01T11:27:36;3.25;;;2.55;;
2055;SDS011;1033;52.560;13.374;2023-03-01T11:30:18;2.50;;;2.22;;
2055;SDS011;1033;52.560;13.374;2023-03-01T11:33:08;2.72;;;2.53;;
2055;SDS011;1033;52.560;13.374;2023-03-01T11:35:49;4.43;;;3.30;;
2055;SDS011;1033;52.560;13.374;2023-03-01T11:38:28;7.82;;;3.15;;
2055;SDS011;1033;52.560;13.374;2023-03-01T11:41:04;6.05;;;2.85;;
2055;SDS011;1033;52.560;13.374;2023-03-01T11:43:43;4.40;;;3.00;;
2055;SDS011;1033;52.560;13.374;2023-03-01T11:49:34;5.10;;;3.20;;
2055;SDS011;1033;52.560;13.374;2023-03-01T11:52:26;5.47;;;3.03;;
2055;SDS011;1033;52.560;13.374;2023-03-01T11:55:14;5.22;;;2.85;;
2055;SDS011;1033;52.560;13.374;2023-03-01T11:58:14;4.90;;;3.05;;
2055;SDS011;1033;52.560;13.374;2023-03-01T12:01:14;3.20;;;2.65;;
2055;SDS011;1033;52.560;13.374;2023-03-01T12:07:13;4.25;;;2.35;;
2055;SDS011;1033;52.560;13.374;2023-03-01T12:09:58;9.30;;;3.50;;
2055;SDS011;1033;52.560;13.374;2023-03-01T12:12:56;6.93;;;3.15;;
2055;SDS011;1033;52.560;13.374;2023-03-01T12:18:48;4.15;;;2.65;;
2055;SDS011;1033;52.560;13.374;2023-03-01T12:21:44;5.18;;;3.30;;
2055;SDS011;1033;52.560;13.374;2023-03-01T12:24:34;3.40;;;2.47;;
2055;SDS011;1033;52.560;13.374;2023-03-01T12:27:49;4.25;;;2.85;;
2055;SDS011;1033;52.560;13.374;2023-03-01T12:30:40;5.03;;;2.58;;
2055;SDS011;1033;52.560;13.374;2023-03-01T12:33:26;3.90;;;3.08;;
2055;SDS011;1033;52.560;13.374;2023-03-01T12:36:13;4.57;;;2.55;;
2055;SDS011;1033;52.560;13.374;2023-03-01T12:39:15;3.88;;;2.88;;
2055;SDS011;1033;52.560;13.374;2023-03-01T12:41:55;5.45;;;2.20;;
2055;SDS011;1033;52.560;13.374;2023-03-01T12:44:51;3.53;;;2.30;;
2055;SDS011;1033;52.560;13.374;2023-03-01T12:47:45;3.40;;;2.50;;
2055;SDS011;1033;52.560;13.374;2023-03-01T12:50:37;4.57;;;2.30;;
2055;SDS011;1033;52.560;13.374;2023-03-01T12:53:15;2.83;;;2.63;;
2055;SDS011;1033;52.560;13.374;2023-03-01T12:58:50;4.57;;;3.58;;
2055;SDS011;1033;52.560;13.374;2023-03-01T13:01:31;5.43;;;2.90;;
2055;SDS011;1033;52.560;13.374;2023-03-01T13:04:19;4.10;;;2.63;;
2055;SDS011;1033;52.560;13.374;2023-03-01T13:10:16;5.95;;;3.90;;
2055;SDS011;1033;52.560;13.374;2023-03-01T13:13:10;4.70;;;2.50;;
2055;SDS011;1033;52.560;13.374;2023-03-01T13:15:45;5.20;;;2.95;;
2055;SDS011;1033;52.560;13.374;2023-03-01T13:21:07;4.85;;;3.15;;
2055;SDS011;1033;52.560;13.374;2023-03-01T13:23:39;4.13;;;2.60;;
2055;SDS011;1033;52.560;13.374;2023-03-01T13:26:17;3.63;;;2.33;;
2055;SDS011;1033;52.560;13.374;2023-03-01T13:28:52;4.35;;;2.17;;
2055;SDS011;1033;52.560;13.374;2023-03-01T13:34:41;4.13;;;2.88;;
2055;SDS011;1033;52.560;13.374;2023-03-01T13:37:30;4.70;;;3.38;;
2055;SDS011;1033;52.560;13.374;2023-03-01T13:43:28;3.10;;;2.50;;
2055;SDS011;1033;52.560;13.374;2023-03-01T13:46:03;4.15;;;3.58;;
2055;SDS011;1033;52.560;13.374;2023-03-01T13:48:44;2.30;;;1.77;;
2055;SDS011;1033;52.560;13.374;2023-03-01T13:51:20;6.13;;;2.45;;
2055;SDS011;1033;52.560;13.374;2023-03-01T13:54:05;3.70;;;1.95;;
2055;SDS011;1033;52.560;13.374;2023-03-01T13:56:42;4.40;;;1.70;;
2055;SDS011;1033;52.560;13.374;2023-03-01T13:59:15;2.45;;;2.10;;
2055;SDS011;1033;52.560;13.374;2023-03-01T14:01:55;2.20;;;1.70;;
2055;SDS011;1033;52.560;13.374;2023-03-01T14:04:33;3.67;;;2.35;;
2055;SDS011;1033;52.560;13.374;2023-03-01T14:07:11;5.82;;;3.50;;
2055;SDS011;1033;52.560;13.374;2023-03-01T14:09:52;3.95;;;2.10;;
2055;SDS011;1033;52.560;13.374;2023-03-01T14:12:33;3.35;;;1.95;;
2055;SDS011;1033;52.560;13.374;2023-03-01T14:15:18;2.63;;;1.70;;
2055;SDS011;1033;52.560;13.374;2023-03-01T14:18:03;2.58;;;2.10;;
2055;SDS011;1033;52.560;13.374;2023-03-01T14:20:38;3.45;;;2.20;;
2055;SDS011;1033;52.560;13.374;2023-03-01T14:23:45;5.32;;;2.00;;
2055;SDS011;1033;52.560;13.374;2023-03-01T14:26:21;3.38;;;2.03;;
2055;SDS011;1033;52.560;13.374;2023-03-01T14:28:53;3.40;;;1.85;;
2055;SDS011;1033;52.560;13.374;2023-03-01T14:31:37;5.90;;;1.80;;
2055;SDS011;1033;52.560;13.374;2023-03-01T14:34:20;2.78;;;2.30;;
2055;SDS011;1033;52.560;13.374;2023-03-01T14:36:53;2.55;;;1.58;;
2055;SDS011;1033;52.560;13.374;2023-03-01T14:39:24;4.72;;;1.95;;
2055;SDS011;1033;52.560;13.374;2023-03-01T14:41:57;5.80;;;2.08;;
2055;SDS011;1033;52.560;13.374;2023-03-01T14:44:42;4.90;;;2.03;;
2055;SDS011;1033;52.560;13.374;2023-03-01T14:47:22;2.55;;;1.83;;
2055;SDS011;1033;52.560;13.374;2023-03-01T14:49:59;4.13;;;1.98;;
2055;SDS011;1033;52.560;13.374;2023-03-01T14:52:38;4.50;;;2.28;;
2055;SDS011;1033;52.560;13.374;2023-03-01T14:55:15;3.30;;;2.13;;
2055;SDS011;1033;52.560;13.374;2023-03-01T14:57:49;3.85;;;2.00;;
2055;SDS011;1033;52.560;13.374;2023-03-01T15:00:30;4.18;;;2.05;;
2055;SDS011;1033;52.560;13.374;2023-03-01T15:03:06;3.35;;;1.60;;
2055;SDS011;1033;52.560;13.374;2023-03-01T15:05:52;3.65;;;1.60;;
2055;SDS011;1033;52.560;13.374;2023-03-01T15:08:24;3.67;;;2.00;;
2055;SDS011;1033;52.560;13.374;2023-03-01T15:11:03;3.30;;;1.95;;
2055;SDS011;1033;52.560;13.374;2023-03-01T15:13:35;2.55;;;2.22;;
2055;SDS011;1033;52.560;13.374;2023-03-01T15:16:09;5.05;;;3.22;;
2055;SDS011;1033;52.560;13.374;2023-03-01T15:18:49;3.00;;;2.67;;
2055;SDS011;1033;52.560;13.374;2023-03-01T15:21:26;3.80;;;2.75;;
2055;SDS011;1033;52.560;13.374;2023-03-01T15:24:03;3.92;;;2.55;;
2055;SDS011;1033;52.560;13.374;2023-03-01T15:26:50;4.25;;;2.35;;
2055;SDS011;1033;52.560;13.374;2023-03-01T15:29:38;3.28;;;2.05;;
2055;SDS011;1033;52.560;13.374;2023-03-01T15:32:22;3.97;;;2.22;;
2055;SDS011;1033;52.560;13.374;2023-03-01T15:35:00;4.95;;;2.20;;
2055;SDS011;1033;52.560;13.374;2023-03-01T15:37:54;5.95;;;3.45;;
2055;SDS011;1033;52.560;13.374;2023-03-01T15:40:29;5.85;;;2.38;;
2055;SDS011;1033;52.560;13.374;2023-03-01T15:43:01;3.28;;;1.92;;
2055;SDS011;1033;52.560;13.374;2023-03-01T15:45:34;7.78;;;3.05;;
2055;SDS011;1033;52.560;13.374;2023-03-01T15:48:14;3.28;;;2.22;;
2055;SDS011;1033;52.560;13.374;2023-03-01T15:50:53;4.75;;;2.63;;
2055;SDS011;1033;52.560;13.374;2023-03-01T15:53:28;9.65;;;3.60;;
2055;SDS011;1033;52.560;13.374;2023-03-01T15:55:58;4.68;;;2.20;;
2055;SDS011;1033;52.560;13.374;2023-03-01T15:58:30;4.30;;;3.85;;
2055;SDS011;1033;52.560;13.374;2023-03-01T16:01:07;9.15;;;2.70;;
2055;SDS011;1033;52.560;13.374;2023-03-01T16:03:43;7.97;;;3.05;;
2055;SDS011;1033;52.560;13.374;2023-03-01T16:06:14;4.03;;;2.40;;
2055;SDS011;1033;52.560;13.374;2023-03-01T16:08:53;4.18;;;2.95;;
2055;SDS011;1033;52.560;13.374;2023-03-01T16:11:29;5.97;;;2.35;;
2055;SDS011;1033;52.560;13.374;2023-03-01T16:14:06;5.32;;;3.42;;
2055;SDS011;1033;52.560;13.374;2023-03-01T16:16:40;9.38;;;3.33;;
2055;SDS011;1033;52.560;13.374;2023-03-01T16:19:10;6.15;;;3.13;;
2055;SDS011;1033;52.560;13.374;2023-03-01T16:21:44;5.68;;;3.13;;
2055;SDS011;1033;52.560;13.374;2023-03-01T16:24:18;3.97;;;3.22;;
2055;SDS011;1033;52.560;13.374;2023-03-01T16:26:51;7.10;;;3.65;;
2055;SDS011;1033;52.560;13.374;2023-03-01T16:29:26;6.18;;;3.83;;
2055;SDS011;1033;52.560;13.374;2023-03-01T16:31:59;3.83;;;3.00;;
2055;SDS011;1033;52.560;13.374;2023-03-01T16:34:30;10.02;;;4.13;;
2055;SDS011;1033;52.560;13.374;2023-03-01T16:37:02;6.90;;;4.50;;
2055;SDS011;1033;52.560;13.374;2023-03-01T16:39:36;7.57;;;3.22;;